<?xml version="1.0" encoding="UTF-8" standalone="no" ?>
<gpx xmlns="http://www.topografix.com/GPX/1/1" xmlns:xsi="http://www.w3.org/2001/XMLSchema-instance" xsi:schemaLocation="http://www.topografix.com/GPX/1/1 http://www.topografix.com/GPX/1/1/gpx.xsd" version="1.1" creator="VisuGPX - https://www.visugpx.com">
  <metadata>
    <name>GR26 de Firfol à Deauville (variante) </name>
  </metadata>
  <trk>
    <name><![CDATA[GR26 de Firfol à Deauville (variante) _1]]></name>
    <trkseg>
      <trkpt lat="49.34871" lon="0.05026">
        <ele>8.9</ele>
      </trkpt>
      <trkpt lat="49.34871" lon="0.05026">
        <ele>8.9</ele>
      </trkpt>
      <trkpt lat="49.34379" lon="0.05163">
        <ele>20.4</ele>
      </trkpt>
      <trkpt lat="49.34334" lon="0.05369">
        <ele>18.3</ele>
      </trkpt>
      <trkpt lat="49.34021" lon="0.05163">
        <ele>61.1</ele>
      </trkpt>
      <trkpt lat="49.33574" lon="0.05301">
        <ele>93.8</ele>
      </trkpt>
      <trkpt lat="49.3335" lon="0.0585">
        <ele>83.6</ele>
      </trkpt>
      <trkpt lat="49.33395" lon="0.06193">
        <ele>91.4</ele>
      </trkpt>
      <trkpt lat="49.33261" lon="0.06125">
        <ele>86.9</ele>
      </trkpt>
      <trkpt lat="49.33261" lon="0.05987">
        <ele>77.2</ele>
      </trkpt>
      <trkpt lat="49.32992" lon="0.06262">
        <ele>47</ele>
      </trkpt>
      <trkpt lat="49.32545" lon="0.06262">
        <ele>25.3</ele>
      </trkpt>
      <trkpt lat="49.32321" lon="0.06468">
        <ele>17.5</ele>
      </trkpt>
      <trkpt lat="49.32366" lon="0.06743">
        <ele>13.6</ele>
      </trkpt>
      <trkpt lat="49.31694" lon="0.07361">
        <ele>20.5</ele>
      </trkpt>
      <trkpt lat="49.30307" lon="0.07361">
        <ele>52</ele>
      </trkpt>
      <trkpt lat="49.29501" lon="0.07567">
        <ele>68</ele>
      </trkpt>
      <trkpt lat="49.29232" lon="0.07498">
        <ele>67.3</ele>
      </trkpt>
      <trkpt lat="49.29097" lon="0.07704">
        <ele>61.4</ele>
      </trkpt>
      <trkpt lat="49.29053" lon="0.07086">
        <ele>67.6</ele>
      </trkpt>
      <trkpt lat="49.28605" lon="0.07223">
        <ele>54.2</ele>
      </trkpt>
      <trkpt lat="49.28426" lon="0.07223">
        <ele>55.4</ele>
      </trkpt>
      <trkpt lat="49.28202" lon="0.07361">
        <ele>53.6</ele>
      </trkpt>
      <trkpt lat="49.28202" lon="0.07086">
        <ele>71.9</ele>
      </trkpt>
      <trkpt lat="49.27888" lon="0.07362">
        <ele>67.2</ele>
      </trkpt>
    </trkseg>
  </trk>
  <trk>
    <name><![CDATA[GR26 de Firfol à Deauville (variante) _2]]></name>
    <trkseg>
      <trkpt lat="49.15153" lon="0.31247">
        <ele>144.808</ele>
        <time>2020-12-13T02:39:27Z</time>
      </trkpt>
      <trkpt lat="49.15326" lon="0.31219">
        <ele>142.714</ele>
        <time>2020-12-13T02:39:47Z</time>
      </trkpt>
      <trkpt lat="49.1547" lon="0.31247">
        <ele>138.31</ele>
        <time>2020-12-13T02:40:07Z</time>
      </trkpt>
      <trkpt lat="49.15479" lon="0.31196">
        <ele>138.889</ele>
        <time>2020-12-13T02:40:27Z</time>
      </trkpt>
      <trkpt lat="49.15606" lon="0.31263">
        <ele>144.998</ele>
        <time>2020-12-13T02:40:47Z</time>
      </trkpt>
      <trkpt lat="49.15615" lon="0.31178">
        <ele>146.698</ele>
        <time>2020-12-13T02:41:07Z</time>
      </trkpt>
      <trkpt lat="49.15642" lon="0.31111">
        <ele>146.616</ele>
        <time>2020-12-13T02:41:27Z</time>
      </trkpt>
      <trkpt lat="49.15645" lon="0.31016">
        <ele>147.013</ele>
        <time>2015-12-04T17:21:47Z</time>
      </trkpt>
      <trkpt lat="49.15642" lon="0.30883">
        <ele>148.071</ele>
        <time>2015-12-04T17:22:07Z</time>
      </trkpt>
      <trkpt lat="49.15633" lon="0.30798">
        <ele>148.052</ele>
        <time>2015-12-04T17:22:27Z</time>
      </trkpt>
      <trkpt lat="49.15636" lon="0.30689">
        <ele>147.053</ele>
        <time>2015-12-04T17:22:47Z</time>
      </trkpt>
      <trkpt lat="49.15633" lon="0.30633">
        <ele>147.008</ele>
        <time>2015-12-04T17:23:07Z</time>
      </trkpt>
      <trkpt lat="49.15617" lon="0.306">
        <ele>147.008</ele>
        <time>2015-12-04T17:23:27Z</time>
      </trkpt>
      <trkpt lat="49.1556" lon="0.30541">
        <ele>147.081</ele>
        <time>2015-12-04T17:23:47Z</time>
      </trkpt>
      <trkpt lat="49.15512" lon="0.3049">
        <ele>147.077</ele>
        <time>2015-12-04T17:24:07Z</time>
      </trkpt>
      <trkpt lat="49.15496" lon="0.30451">
        <ele>145.016</ele>
        <time>2015-12-04T17:24:27Z</time>
      </trkpt>
      <trkpt lat="49.15496" lon="0.3037">
        <ele>144.075</ele>
        <time>2015-12-04T17:24:47Z</time>
      </trkpt>
      <trkpt lat="49.155" lon="0.30314">
        <ele>143.065</ele>
        <time>2015-12-04T17:25:07Z</time>
      </trkpt>
      <trkpt lat="49.15514" lon="0.30264">
        <ele>144.093</ele>
        <time>2015-12-04T17:25:27Z</time>
      </trkpt>
      <trkpt lat="49.15538" lon="0.30218">
        <ele>144.04</ele>
        <time>2015-12-04T17:25:47Z</time>
      </trkpt>
      <trkpt lat="49.15556" lon="0.30192">
        <ele>144.098</ele>
        <time>2015-12-04T17:26:07Z</time>
      </trkpt>
      <trkpt lat="49.15585" lon="0.30131">
        <ele>144.067</ele>
        <time>2015-12-04T17:26:27Z</time>
      </trkpt>
      <trkpt lat="49.15613" lon="0.3009">
        <ele>144.081</ele>
        <time>2015-12-04T17:26:47Z</time>
      </trkpt>
      <trkpt lat="49.15624" lon="0.30058">
        <ele>145.019</ele>
        <time>2015-12-04T17:27:07Z</time>
      </trkpt>
      <trkpt lat="49.15633" lon="0.30008">
        <ele>144.008</ele>
        <time>2015-12-04T17:27:27Z</time>
      </trkpt>
      <trkpt lat="49.15659" lon="0.29921">
        <ele>144.042</ele>
        <time>2015-12-04T17:27:47Z</time>
      </trkpt>
      <trkpt lat="49.15664" lon="0.29864">
        <ele>144.048</ele>
        <time>2015-12-04T17:28:07Z</time>
      </trkpt>
      <trkpt lat="49.15672" lon="0.29833">
        <ele>144.017</ele>
        <time>2015-12-04T17:28:27Z</time>
      </trkpt>
      <trkpt lat="49.15715" lon="0.29757">
        <ele>142.086</ele>
        <time>2015-12-04T17:28:47Z</time>
      </trkpt>
      <trkpt lat="49.15727" lon="0.2972">
        <ele>142.046</ele>
        <time>2015-12-04T17:29:07Z</time>
      </trkpt>
      <trkpt lat="49.15745" lon="0.29687">
        <ele>143.074</ele>
        <time>2015-12-04T17:29:27Z</time>
      </trkpt>
      <trkpt lat="49.15766" lon="0.29637">
        <ele>145.021</ele>
        <time>2015-12-04T17:29:47Z</time>
      </trkpt>
      <trkpt lat="49.15797" lon="0.29577">
        <ele>147.099</ele>
        <time>2015-12-04T17:30:07Z</time>
      </trkpt>
      <trkpt lat="49.1583" lon="0.29497">
        <ele>151.025</ele>
        <time>2015-12-04T17:30:27Z</time>
      </trkpt>
      <trkpt lat="49.15839" lon="0.29439">
        <ele>152.026</ele>
        <time>2015-12-04T17:30:47Z</time>
      </trkpt>
      <trkpt lat="49.15878" lon="0.29353">
        <ele>150.008</ele>
        <time>2015-12-04T17:31:07Z</time>
      </trkpt>
      <trkpt lat="49.15936" lon="0.2929">
        <ele>151.008</ele>
        <time>2015-12-04T17:31:27Z</time>
      </trkpt>
      <trkpt lat="49.15959" lon="0.29224">
        <ele>146.048</ele>
        <time>2015-12-04T17:31:47Z</time>
      </trkpt>
      <trkpt lat="49.15974" lon="0.29213">
        <ele>146.044</ele>
        <time>2015-12-04T17:32:07Z</time>
      </trkpt>
      <trkpt lat="49.15992" lon="0.2922">
        <ele>146.023</ele>
        <time>2015-12-04T17:32:27Z</time>
      </trkpt>
      <trkpt lat="49.1607" lon="0.29301">
        <ele>151.062</ele>
        <time>2015-12-04T17:32:47Z</time>
      </trkpt>
      <trkpt lat="49.16096" lon="0.29316">
        <ele>151.012</ele>
        <time>2015-12-04T17:33:07Z</time>
      </trkpt>
      <trkpt lat="49.16138" lon="0.29328">
        <ele>151.09</ele>
        <time>2015-12-04T17:33:27Z</time>
      </trkpt>
      <trkpt lat="49.16159" lon="0.29306">
        <ele>150.087</ele>
        <time>2015-12-04T17:33:47Z</time>
      </trkpt>
      <trkpt lat="49.16202" lon="0.29204">
        <ele>147.075</ele>
        <time>2015-12-04T17:34:07Z</time>
      </trkpt>
      <trkpt lat="49.16208" lon="0.29168">
        <ele>147.088</ele>
        <time>2015-12-04T17:34:27Z</time>
      </trkpt>
      <trkpt lat="49.16206" lon="0.29137">
        <ele>147.024</ele>
        <time>2015-12-04T17:34:47Z</time>
      </trkpt>
      <trkpt lat="49.16196" lon="0.29069">
        <ele>145.026</ele>
        <time>2015-12-04T17:35:07Z</time>
      </trkpt>
      <trkpt lat="49.16195" lon="0.29032">
        <ele>145.008</ele>
        <time>2015-12-04T17:35:27Z</time>
      </trkpt>
      <trkpt lat="49.16205" lon="0.28982">
        <ele>145.064</ele>
        <time>2015-12-04T17:35:47Z</time>
      </trkpt>
      <trkpt lat="49.16224" lon="0.28914">
        <ele>144.03</ele>
        <time>2015-12-04T17:36:07Z</time>
      </trkpt>
      <trkpt lat="49.16254" lon="0.2874">
        <ele>139.039</ele>
        <time>2015-12-04T17:36:27Z</time>
      </trkpt>
      <trkpt lat="49.16287" lon="0.28615">
        <ele>128.038</ele>
        <time>2015-12-04T17:36:47Z</time>
      </trkpt>
      <trkpt lat="49.16296" lon="0.28562">
        <ele>120.018</ele>
        <time>2015-12-04T17:37:07Z</time>
      </trkpt>
      <trkpt lat="49.16302" lon="0.28499">
        <ele>108.086</ele>
        <time>2015-12-04T17:37:27Z</time>
      </trkpt>
      <trkpt lat="49.16398" lon="0.28355">
        <ele>90.043</ele>
        <time>2015-12-04T17:37:47Z</time>
      </trkpt>
      <trkpt lat="49.16405" lon="0.28334">
        <ele>88.041</ele>
        <time>2015-12-04T17:38:07Z</time>
      </trkpt>
      <trkpt lat="49.16432" lon="0.28296">
        <ele>78.038</ele>
        <time>2015-12-04T17:38:27Z</time>
      </trkpt>
      <trkpt lat="49.1644" lon="0.28274">
        <ele>77.07</ele>
        <time>2015-12-04T17:38:47Z</time>
      </trkpt>
      <trkpt lat="49.16462" lon="0.28255">
        <ele>75.017</ele>
        <time>2015-12-04T17:39:07Z</time>
      </trkpt>
      <trkpt lat="49.16508" lon="0.28224">
        <ele>68.008</ele>
        <time>2015-12-04T17:39:27Z</time>
      </trkpt>
      <trkpt lat="49.16663" lon="0.28337">
        <ele>67.019</ele>
        <time>2015-12-04T17:39:47Z</time>
      </trkpt>
      <trkpt lat="49.16685" lon="0.28256">
        <ele>64.055</ele>
        <time>2015-12-04T17:40:07Z</time>
      </trkpt>
      <trkpt lat="49.16632" lon="0.28153">
        <ele>63.064</ele>
        <time>2015-12-04T17:40:27Z</time>
      </trkpt>
      <trkpt lat="49.16568" lon="0.28045">
        <ele>63.063</ele>
        <time>2015-12-04T17:40:47Z</time>
      </trkpt>
      <trkpt lat="49.16553" lon="0.28007">
        <ele>64.063</ele>
        <time>2015-12-04T17:41:07Z</time>
      </trkpt>
      <trkpt lat="49.16514" lon="0.27942">
        <ele>66.011</ele>
        <time>2015-12-04T17:41:27Z</time>
      </trkpt>
      <trkpt lat="49.16491" lon="0.27909">
        <ele>70.028</ele>
        <time>2015-12-04T17:41:47Z</time>
      </trkpt>
      <trkpt lat="49.16457" lon="0.27876">
        <ele>73.096</ele>
        <time>2015-12-04T17:42:07Z</time>
      </trkpt>
      <trkpt lat="49.164" lon="0.27792">
        <ele>81.011</ele>
        <time>2015-12-04T17:42:27Z</time>
      </trkpt>
      <trkpt lat="49.16427" lon="0.27768">
        <ele>78.021</ele>
        <time>2015-12-04T17:42:47Z</time>
      </trkpt>
      <trkpt lat="49.16506" lon="0.27675">
        <ele>69.003</ele>
        <time>2015-12-04T17:43:07Z</time>
      </trkpt>
      <trkpt lat="49.16517" lon="0.27653">
        <ele>67.008</ele>
        <time>2015-12-04T17:43:27Z</time>
      </trkpt>
      <trkpt lat="49.16525" lon="0.27615">
        <ele>65.077</ele>
        <time>2015-12-04T17:43:47Z</time>
      </trkpt>
      <trkpt lat="49.16531" lon="0.27558">
        <ele>62.043</ele>
        <time>2015-12-04T17:44:07Z</time>
      </trkpt>
      <trkpt lat="49.16548" lon="0.2748">
        <ele>59.062</ele>
        <time>2015-12-04T17:44:27Z</time>
      </trkpt>
      <trkpt lat="49.16568" lon="0.27425">
        <ele>57.041</ele>
        <time>2015-12-04T17:44:47Z</time>
      </trkpt>
      <trkpt lat="49.16483" lon="0.27262">
        <ele>61.081</ele>
        <time>2015-12-04T17:45:07Z</time>
      </trkpt>
      <trkpt lat="49.16463" lon="0.27187">
        <ele>62.089</ele>
        <time>2015-12-04T17:45:27Z</time>
      </trkpt>
      <trkpt lat="49.16442" lon="0.27136">
        <ele>64.026</ele>
        <time>2015-12-04T17:45:47Z</time>
      </trkpt>
      <trkpt lat="49.16439" lon="0.27078">
        <ele>67.024</ele>
        <time>2015-12-04T17:46:07Z</time>
      </trkpt>
      <trkpt lat="49.16424" lon="0.27044">
        <ele>67.011</ele>
        <time>2015-12-04T17:46:27Z</time>
      </trkpt>
      <trkpt lat="49.16409" lon="0.26974">
        <ele>73.021</ele>
        <time>2015-12-04T17:46:47Z</time>
      </trkpt>
      <trkpt lat="49.16409" lon="0.26886">
        <ele>71.003</ele>
        <time>2015-12-04T17:47:07Z</time>
      </trkpt>
      <trkpt lat="49.16415" lon="0.26836">
        <ele>69.008</ele>
        <time>2015-12-04T17:47:27Z</time>
      </trkpt>
      <trkpt lat="49.16444" lon="0.26806">
        <ele>64.037</ele>
        <time>2015-12-04T17:47:47Z</time>
      </trkpt>
      <trkpt lat="49.16459" lon="0.26761">
        <ele>63.063</ele>
        <time>2015-12-04T17:48:07Z</time>
      </trkpt>
      <trkpt lat="49.16488" lon="0.26626">
        <ele>63.082</ele>
        <time>2015-12-04T17:48:27Z</time>
      </trkpt>
      <trkpt lat="49.16491" lon="0.26539">
        <ele>61.081</ele>
        <time>2015-12-04T17:48:47Z</time>
      </trkpt>
      <trkpt lat="49.16507" lon="0.26472">
        <ele>58.071</ele>
        <time>2015-12-04T17:49:07Z</time>
      </trkpt>
      <trkpt lat="49.16516" lon="0.2639">
        <ele>59.059</ele>
        <time>2015-12-04T17:49:27Z</time>
      </trkpt>
      <trkpt lat="49.16518" lon="0.26344">
        <ele>60.036</ele>
        <time>2015-12-04T17:49:47Z</time>
      </trkpt>
      <trkpt lat="49.1651" lon="0.26293">
        <ele>60.044</ele>
        <time>2015-12-04T17:50:07Z</time>
      </trkpt>
      <trkpt lat="49.1648" lon="0.26278">
        <ele>68.018</ele>
        <time>2015-12-04T17:50:27Z</time>
      </trkpt>
      <trkpt lat="49.16461" lon="0.26261">
        <ele>69.098</ele>
        <time>2015-12-04T17:50:47Z</time>
      </trkpt>
      <trkpt lat="49.16325" lon="0.26206">
        <ele>81.017</ele>
        <time>2015-12-04T17:51:07Z</time>
      </trkpt>
      <trkpt lat="49.16289" lon="0.26189">
        <ele>82.008</ele>
        <time>2015-12-04T17:51:27Z</time>
      </trkpt>
      <trkpt lat="49.1625" lon="0.26162">
        <ele>87.087</ele>
        <time>2015-12-04T17:51:47Z</time>
      </trkpt>
      <trkpt lat="49.16202" lon="0.26143">
        <ele>92.053</ele>
        <time>2015-12-04T17:52:07Z</time>
      </trkpt>
      <trkpt lat="49.16185" lon="0.26124">
        <ele>94.062</ele>
        <time>2015-12-04T17:52:27Z</time>
      </trkpt>
      <trkpt lat="49.16177" lon="0.26091">
        <ele>99.031</ele>
        <time>2015-12-04T17:52:47Z</time>
      </trkpt>
      <trkpt lat="49.16182" lon="0.2604">
        <ele>101.061</ele>
        <time>2015-12-04T17:53:07Z</time>
      </trkpt>
      <trkpt lat="49.1621" lon="0.25914">
        <ele>111.039</ele>
        <time>2015-12-04T17:53:27Z</time>
      </trkpt>
      <trkpt lat="49.16202" lon="0.25908">
        <ele>112.046</ele>
        <time>2015-12-04T17:53:47Z</time>
      </trkpt>
      <trkpt lat="49.1615" lon="0.25985">
        <ele>118.084</ele>
        <time>2015-12-04T17:54:07Z</time>
      </trkpt>
      <trkpt lat="49.16129" lon="0.25995">
        <ele>121.018</ele>
        <time>2015-12-04T17:54:27Z</time>
      </trkpt>
      <trkpt lat="49.16098" lon="0.25996">
        <ele>125.098</ele>
        <time>2015-12-04T17:54:47Z</time>
      </trkpt>
      <trkpt lat="49.16057" lon="0.26006">
        <ele>124.017</ele>
        <time>2015-12-04T17:55:07Z</time>
      </trkpt>
      <trkpt lat="49.15997" lon="0.25998">
        <ele>130.008</ele>
        <time>2015-12-04T17:55:27Z</time>
      </trkpt>
      <trkpt lat="49.15906" lon="0.26001">
        <ele>131.067</ele>
        <time>2015-12-04T17:55:47Z</time>
      </trkpt>
      <trkpt lat="49.15856" lon="0.26016">
        <ele>130.043</ele>
        <time>2015-12-04T17:56:07Z</time>
      </trkpt>
      <trkpt lat="49.1587" lon="0.25955">
        <ele>134.092</ele>
        <time>2015-12-04T17:56:27Z</time>
      </trkpt>
      <trkpt lat="49.15923" lon="0.25818">
        <ele>138.071</ele>
        <time>2015-12-04T17:56:47Z</time>
      </trkpt>
      <trkpt lat="49.15941" lon="0.2576">
        <ele>137.041</ele>
        <time>2015-12-04T17:57:07Z</time>
      </trkpt>
      <trkpt lat="49.15962" lon="0.25717">
        <ele>136.079</ele>
        <time>2015-12-04T17:57:27Z</time>
      </trkpt>
      <trkpt lat="49.15984" lon="0.25692">
        <ele>135.046</ele>
        <time>2015-12-04T17:57:47Z</time>
      </trkpt>
      <trkpt lat="49.15989" lon="0.25679">
        <ele>135.074</ele>
        <time>2015-12-04T17:58:07Z</time>
      </trkpt>
      <trkpt lat="49.15982" lon="0.25634">
        <ele>135.077</ele>
        <time>2015-12-04T17:58:27Z</time>
      </trkpt>
      <trkpt lat="49.16002" lon="0.25304">
        <ele>132.061</ele>
        <time>2015-12-04T17:58:47Z</time>
      </trkpt>
      <trkpt lat="49.16028" lon="0.25219">
        <ele>133.027</ele>
        <time>2015-12-04T17:59:07Z</time>
      </trkpt>
      <trkpt lat="49.16178" lon="0.24943">
        <ele>130.008</ele>
        <time>2015-12-04T17:59:27Z</time>
      </trkpt>
      <trkpt lat="49.16322" lon="0.24661">
        <ele>129.043</ele>
        <time>2015-12-04T17:59:47Z</time>
      </trkpt>
      <trkpt lat="49.16326" lon="0.24634">
        <ele>130.049</ele>
        <time>2015-12-04T18:00:07Z</time>
      </trkpt>
      <trkpt lat="49.16274" lon="0.2431">
        <ele>127.098</ele>
        <time>2015-12-04T18:00:27Z</time>
      </trkpt>
      <trkpt lat="49.16272" lon="0.24256">
        <ele>128.087</ele>
        <time>2015-12-04T18:00:47Z</time>
      </trkpt>
      <trkpt lat="49.16257" lon="0.24193">
        <ele>127.047</ele>
        <time>2015-12-04T18:01:07Z</time>
      </trkpt>
      <trkpt lat="49.16258" lon="0.24126">
        <ele>128.065</ele>
        <time>2015-12-04T18:01:27Z</time>
      </trkpt>
      <trkpt lat="49.16223" lon="0.24015">
        <ele>131.032</ele>
        <time>2015-12-04T18:01:47Z</time>
      </trkpt>
      <trkpt lat="49.16221" lon="0.23966">
        <ele>132.03</ele>
        <time>2015-12-04T18:02:07Z</time>
      </trkpt>
      <trkpt lat="49.16265" lon="0.23908">
        <ele>134.086</ele>
        <time>2015-12-04T18:02:27Z</time>
      </trkpt>
      <trkpt lat="49.16321" lon="0.23854">
        <ele>137.06</ele>
        <time>2015-12-04T18:02:47Z</time>
      </trkpt>
      <trkpt lat="49.16584" lon="0.23573">
        <ele>133.026</ele>
        <time>2015-12-04T18:03:07Z</time>
      </trkpt>
      <trkpt lat="49.16895" lon="0.23237">
        <ele>133.008</ele>
        <time>2015-12-04T18:03:27Z</time>
      </trkpt>
      <trkpt lat="49.17289" lon="0.22812">
        <ele>96.074</ele>
        <time>2015-12-04T18:03:47Z</time>
      </trkpt>
      <trkpt lat="49.17308" lon="0.2278">
        <ele>94.07</ele>
        <time>2015-12-04T18:04:07Z</time>
      </trkpt>
      <trkpt lat="49.17327" lon="0.22741">
        <ele>86.049</ele>
        <time>2015-12-04T18:04:27Z</time>
      </trkpt>
      <trkpt lat="49.17361" lon="0.22717">
        <ele>81.098</ele>
        <time>2015-12-04T18:04:47Z</time>
      </trkpt>
      <trkpt lat="49.17357" lon="0.22652">
        <ele>71.078</ele>
        <time>2015-12-04T18:05:07Z</time>
      </trkpt>
      <trkpt lat="49.17536" lon="0.2261">
        <ele>59.066</ele>
        <time>2015-12-04T18:05:27Z</time>
      </trkpt>
      <trkpt lat="49.17643" lon="0.22616">
        <ele>49.083</ele>
        <time>2015-12-04T18:05:47Z</time>
      </trkpt>
      <trkpt lat="49.17664" lon="0.22635">
        <ele>49.011</ele>
        <time>2015-12-04T18:06:07Z</time>
      </trkpt>
      <trkpt lat="49.1768" lon="0.22672">
        <ele>45.065</ele>
        <time>2015-12-04T18:06:27Z</time>
      </trkpt>
      <trkpt lat="49.17692" lon="0.22682">
        <ele>44.068</ele>
        <time>2015-12-04T18:06:47Z</time>
      </trkpt>
      <trkpt lat="49.17676" lon="0.22639">
        <ele>44.014</ele>
        <time>2015-12-04T18:07:07Z</time>
      </trkpt>
      <trkpt lat="49.17676" lon="0.22606">
        <ele>43.008</ele>
        <time>2015-12-04T18:07:27Z</time>
      </trkpt>
      <trkpt lat="49.17683" lon="0.22573">
        <ele>43.062</ele>
        <time>2015-12-04T18:07:47Z</time>
      </trkpt>
      <trkpt lat="49.17706" lon="0.22543">
        <ele>42.068</ele>
        <time>2015-12-04T18:08:07Z</time>
      </trkpt>
      <trkpt lat="49.17707" lon="0.22514">
        <ele>42.077</ele>
        <time>2015-12-04T18:08:27Z</time>
      </trkpt>
      <trkpt lat="49.17694" lon="0.22503">
        <ele>43.066</ele>
        <time>2015-12-04T18:08:47Z</time>
      </trkpt>
      <trkpt lat="49.17687" lon="0.22476">
        <ele>43.076</ele>
        <time>2015-12-04T18:09:07Z</time>
      </trkpt>
      <trkpt lat="49.17697" lon="0.22432">
        <ele>42.014</ele>
        <time>2015-12-04T18:09:27Z</time>
      </trkpt>
      <trkpt lat="49.17705" lon="0.22371">
        <ele>41.051</ele>
        <time>2015-12-04T18:09:47Z</time>
      </trkpt>
      <trkpt lat="49.17721" lon="0.22208">
        <ele>38.069</ele>
        <time>2015-12-04T18:10:07Z</time>
      </trkpt>
      <trkpt lat="49.17715" lon="0.2219">
        <ele>38.035</ele>
        <time>2015-12-04T18:10:27Z</time>
      </trkpt>
      <trkpt lat="49.17806" lon="0.22153">
        <ele>37.086</ele>
        <time>2015-12-04T18:10:47Z</time>
      </trkpt>
      <trkpt lat="49.17897" lon="0.22135">
        <ele>35.014</ele>
        <time>2015-12-04T18:11:07Z</time>
      </trkpt>
      <trkpt lat="49.17913" lon="0.22148">
        <ele>35.008</ele>
        <time>2015-12-04T18:11:27Z</time>
      </trkpt>
      <trkpt lat="49.17877" lon="0.21444">
        <ele>33.069</ele>
        <time>2015-12-04T18:11:47Z</time>
      </trkpt>
      <trkpt lat="49.17853" lon="0.20958">
        <ele>36.055</ele>
        <time>2015-12-04T18:12:07Z</time>
      </trkpt>
      <trkpt lat="49.17956" lon="0.20929">
        <ele>36.044</ele>
        <time>2015-12-04T18:12:27Z</time>
      </trkpt>
      <trkpt lat="49.18047" lon="0.20944">
        <ele>38.063</ele>
        <time>2015-12-04T18:12:47Z</time>
      </trkpt>
      <trkpt lat="49.18108" lon="0.20788">
        <ele>60.063</ele>
        <time>2015-12-04T18:13:07Z</time>
      </trkpt>
      <trkpt lat="49.18145" lon="0.20717">
        <ele>72.011</ele>
        <time>2015-12-04T18:13:27Z</time>
      </trkpt>
      <trkpt lat="49.18195" lon="0.20649">
        <ele>88.058</ele>
        <time>2015-12-04T18:13:47Z</time>
      </trkpt>
      <trkpt lat="49.1822" lon="0.20478">
        <ele>108.046</ele>
        <time>2015-12-04T18:14:07Z</time>
      </trkpt>
      <trkpt lat="49.18236" lon="0.2044">
        <ele>110.058</ele>
        <time>2015-12-04T18:14:27Z</time>
      </trkpt>
      <trkpt lat="49.18313" lon="0.20416">
        <ele>114.052</ele>
        <time>2015-12-04T18:14:47Z</time>
      </trkpt>
      <trkpt lat="49.18341" lon="0.20369">
        <ele>114.017</ele>
        <time>2015-12-04T18:15:07Z</time>
      </trkpt>
      <trkpt lat="49.18415" lon="0.20322">
        <ele>119.008</ele>
        <time>2015-12-04T18:15:27Z</time>
      </trkpt>
      <trkpt lat="49.18463" lon="0.20376">
        <ele>106.041</ele>
        <time>2015-12-04T18:15:47Z</time>
      </trkpt>
      <trkpt lat="49.18501" lon="0.20392">
        <ele>97.047</ele>
        <time>2015-12-04T18:16:07Z</time>
      </trkpt>
      <trkpt lat="49.18565" lon="0.20384">
        <ele>97.026</ele>
        <time>2015-12-04T18:16:27Z</time>
      </trkpt>
      <trkpt lat="49.18606" lon="0.20358">
        <ele>97.065</ele>
        <time>2015-12-04T18:16:47Z</time>
      </trkpt>
      <trkpt lat="49.18665" lon="0.20365">
        <ele>96.075</ele>
        <time>2015-12-04T18:17:07Z</time>
      </trkpt>
      <trkpt lat="49.18711" lon="0.20339">
        <ele>95.063</ele>
        <time>2015-12-04T18:17:27Z</time>
      </trkpt>
      <trkpt lat="49.18736" lon="0.20337">
        <ele>95.04</ele>
        <time>2015-12-04T18:17:47Z</time>
      </trkpt>
      <trkpt lat="49.18748" lon="0.20364">
        <ele>93.048</ele>
        <time>2015-12-04T18:18:07Z</time>
      </trkpt>
      <trkpt lat="49.18766" lon="0.20365">
        <ele>92.021</ele>
        <time>2015-12-04T18:18:27Z</time>
      </trkpt>
      <trkpt lat="49.188" lon="0.20416">
        <ele>88.041</ele>
        <time>2015-12-04T18:18:47Z</time>
      </trkpt>
      <trkpt lat="49.1896" lon="0.20366">
        <ele>96.005</ele>
        <time>2015-12-04T18:19:07Z</time>
      </trkpt>
      <trkpt lat="49.18954" lon="0.20307">
        <ele>100.008</ele>
        <time>2015-12-04T18:19:27Z</time>
      </trkpt>
      <trkpt lat="49.18954" lon="0.20224">
        <ele>108.098</ele>
        <time>2015-12-04T18:19:47Z</time>
      </trkpt>
      <trkpt lat="49.18931" lon="0.2016">
        <ele>116.054</ele>
        <time>2015-12-04T18:20:07Z</time>
      </trkpt>
      <trkpt lat="49.18924" lon="0.20112">
        <ele>119.013</ele>
        <time>2015-12-04T18:20:27Z</time>
      </trkpt>
      <trkpt lat="49.18909" lon="0.20086">
        <ele>121.072</ele>
        <time>2015-12-04T18:20:47Z</time>
      </trkpt>
      <trkpt lat="49.1889" lon="0.20084">
        <ele>121.072</ele>
        <time>2015-12-04T18:21:07Z</time>
      </trkpt>
      <trkpt lat="49.18907" lon="0.20013">
        <ele>124.06</ele>
        <time>2015-12-04T18:21:27Z</time>
      </trkpt>
      <trkpt lat="49.18932" lon="0.1995">
        <ele>124.097</ele>
        <time>2015-12-04T18:21:47Z</time>
      </trkpt>
      <trkpt lat="49.18972" lon="0.19916">
        <ele>124.045</ele>
        <time>2015-12-04T18:22:07Z</time>
      </trkpt>
      <trkpt lat="49.19023" lon="0.19829">
        <ele>124.028</ele>
        <time>2015-12-04T18:22:27Z</time>
      </trkpt>
      <trkpt lat="49.19048" lon="0.19809">
        <ele>124.089</ele>
        <time>2015-12-04T18:22:47Z</time>
      </trkpt>
      <trkpt lat="49.19077" lon="0.19775">
        <ele>124.017</ele>
        <time>2015-12-04T18:23:07Z</time>
      </trkpt>
      <trkpt lat="49.19119" lon="0.19651">
        <ele>115.008</ele>
        <time>2015-12-04T18:23:27Z</time>
      </trkpt>
      <trkpt lat="49.19157" lon="0.19587">
        <ele>110.098</ele>
        <time>2015-12-04T18:23:47Z</time>
      </trkpt>
      <trkpt lat="49.19253" lon="0.19467">
        <ele>86.054</ele>
        <time>2015-12-04T18:24:07Z</time>
      </trkpt>
      <trkpt lat="49.19291" lon="0.19432">
        <ele>82.013</ele>
        <time>2015-12-04T18:24:27Z</time>
      </trkpt>
      <trkpt lat="49.19301" lon="0.19406">
        <ele>75.062</ele>
        <time>2015-12-04T18:24:47Z</time>
      </trkpt>
      <trkpt lat="49.19364" lon="0.19321">
        <ele>66.022</ele>
        <time>2015-12-04T18:25:07Z</time>
      </trkpt>
      <trkpt lat="49.194" lon="0.19299">
        <ele>65.04</ele>
        <time>2015-12-04T18:25:27Z</time>
      </trkpt>
      <trkpt lat="49.1941" lon="0.19271">
        <ele>64.097</ele>
        <time>2015-12-04T18:25:47Z</time>
      </trkpt>
      <trkpt lat="49.19424" lon="0.19289">
        <ele>60.015</ele>
        <time>2015-12-04T18:26:07Z</time>
      </trkpt>
      <trkpt lat="49.19444" lon="0.1937">
        <ele>58.084</ele>
        <time>2015-12-04T18:26:27Z</time>
      </trkpt>
      <trkpt lat="49.19474" lon="0.19479">
        <ele>58.007</ele>
        <time>2015-12-04T18:26:47Z</time>
      </trkpt>
      <trkpt lat="49.19488" lon="0.19562">
        <ele>62.017</ele>
        <time>2015-12-04T18:27:07Z</time>
      </trkpt>
      <trkpt lat="49.19496" lon="0.19673">
        <ele>65.008</ele>
        <time>2015-12-04T18:27:27Z</time>
      </trkpt>
      <trkpt lat="49.19509" lon="0.19718">
        <ele>64.094</ele>
        <time>2015-12-04T18:27:47Z</time>
      </trkpt>
      <trkpt lat="49.1953" lon="0.19753">
        <ele>68.07</ele>
        <time>2015-12-04T18:28:07Z</time>
      </trkpt>
      <trkpt lat="49.19579" lon="0.19809">
        <ele>67.019</ele>
        <time>2015-12-04T18:28:27Z</time>
      </trkpt>
      <trkpt lat="49.19595" lon="0.19846">
        <ele>65.098</ele>
        <time>2015-12-04T18:28:47Z</time>
      </trkpt>
      <trkpt lat="49.19608" lon="0.19914">
        <ele>65.058</ele>
        <time>2015-12-04T18:29:07Z</time>
      </trkpt>
      <trkpt lat="49.19609" lon="0.19938">
        <ele>66.016</ele>
        <time>2015-12-04T18:29:27Z</time>
      </trkpt>
      <trkpt lat="49.19618" lon="0.19956">
        <ele>66.043</ele>
        <time>2015-12-04T18:29:47Z</time>
      </trkpt>
      <trkpt lat="49.19625" lon="0.20067">
        <ele>68.051</ele>
        <time>2015-12-04T18:30:07Z</time>
      </trkpt>
      <trkpt lat="49.19644" lon="0.20192">
        <ele>68.038</ele>
        <time>2015-12-04T18:30:27Z</time>
      </trkpt>
      <trkpt lat="49.19689" lon="0.20376">
        <ele>65.07</ele>
        <time>2015-12-04T18:30:47Z</time>
      </trkpt>
      <trkpt lat="49.19712" lon="0.20505">
        <ele>65.017</ele>
        <time>2015-12-04T18:31:07Z</time>
      </trkpt>
      <trkpt lat="49.19721" lon="0.20525">
        <ele>65.008</ele>
        <time>2015-12-04T18:31:27Z</time>
      </trkpt>
      <trkpt lat="49.1974" lon="0.20596">
        <ele>64.089</ele>
        <time>2015-12-04T18:31:47Z</time>
      </trkpt>
      <trkpt lat="49.19739" lon="0.20633">
        <ele>64.015</ele>
        <time>2015-12-04T18:32:07Z</time>
      </trkpt>
      <trkpt lat="49.19764" lon="0.20841">
        <ele>56.074</ele>
        <time>2015-12-04T18:32:27Z</time>
      </trkpt>
      <trkpt lat="49.19818" lon="0.20841">
        <ele>53.063</ele>
        <time>2015-12-04T18:32:47Z</time>
      </trkpt>
      <trkpt lat="49.19838" lon="0.20854">
        <ele>49.033</ele>
        <time>2015-12-04T18:33:07Z</time>
      </trkpt>
      <trkpt lat="49.19852" lon="0.2088">
        <ele>48.021</ele>
        <time>2015-12-04T18:33:27Z</time>
      </trkpt>
      <trkpt lat="49.19882" lon="0.20857">
        <ele>46.028</ele>
        <time>2015-12-04T18:33:47Z</time>
      </trkpt>
      <trkpt lat="49.19893" lon="0.20841">
        <ele>44.056</ele>
        <time>2015-12-04T18:34:07Z</time>
      </trkpt>
      <trkpt lat="49.199" lon="0.20803">
        <ele>44.065</ele>
        <time>2015-12-04T18:34:27Z</time>
      </trkpt>
      <trkpt lat="49.19915" lon="0.20757">
        <ele>40.068</ele>
        <time>2015-12-04T18:34:47Z</time>
      </trkpt>
      <trkpt lat="49.19935" lon="0.20747">
        <ele>37.014</ele>
        <time>2015-12-04T18:35:07Z</time>
      </trkpt>
      <trkpt lat="49.20015" lon="0.20732">
        <ele>39.008</ele>
        <time>2015-12-04T18:35:27Z</time>
      </trkpt>
      <trkpt lat="49.20024" lon="0.20719">
        <ele>40.072</ele>
        <time>2015-12-04T18:35:47Z</time>
      </trkpt>
      <trkpt lat="49.20041" lon="0.2071">
        <ele>42.068</ele>
        <time>2015-12-04T18:36:07Z</time>
      </trkpt>
      <trkpt lat="49.20047" lon="0.20752">
        <ele>41.067</ele>
        <time>2015-12-04T18:36:27Z</time>
      </trkpt>
      <trkpt lat="49.20043" lon="0.20807">
        <ele>41.086</ele>
        <time>2015-12-04T18:36:47Z</time>
      </trkpt>
      <trkpt lat="49.20033" lon="0.20864">
        <ele>40.096</ele>
        <time>2015-12-04T18:37:07Z</time>
      </trkpt>
      <trkpt lat="49.20049" lon="0.21056">
        <ele>36.084</ele>
        <time>2015-12-04T18:37:27Z</time>
      </trkpt>
      <trkpt lat="49.20071" lon="0.21114">
        <ele>36.071</ele>
        <time>2015-12-04T18:37:47Z</time>
      </trkpt>
      <trkpt lat="49.20134" lon="0.21045">
        <ele>44.059</ele>
        <time>2015-12-04T18:38:07Z</time>
      </trkpt>
      <trkpt lat="49.20174" lon="0.21017">
        <ele>52.067</ele>
        <time>2015-12-04T18:38:27Z</time>
      </trkpt>
      <trkpt lat="49.20232" lon="0.21006">
        <ele>57.081</ele>
        <time>2015-12-04T18:38:47Z</time>
      </trkpt>
      <trkpt lat="49.20257" lon="0.20983">
        <ele>65.019</ele>
        <time>2015-12-04T18:39:07Z</time>
      </trkpt>
      <trkpt lat="49.20326" lon="0.2097">
        <ele>70.008</ele>
        <time>2015-12-04T18:39:27Z</time>
      </trkpt>
      <trkpt lat="49.20428" lon="0.20879">
        <ele>89.042</ele>
        <time>2015-12-04T18:39:47Z</time>
      </trkpt>
      <trkpt lat="49.20464" lon="0.2096">
        <ele>84.028</ele>
        <time>2015-12-04T18:40:07Z</time>
      </trkpt>
      <trkpt lat="49.20477" lon="0.20966">
        <ele>84.097</ele>
        <time>2015-12-04T18:40:27Z</time>
      </trkpt>
      <trkpt lat="49.20506" lon="0.20953">
        <ele>89.086</ele>
        <time>2015-12-04T18:40:47Z</time>
      </trkpt>
      <trkpt lat="49.20546" lon="0.20888">
        <ele>99.066</ele>
        <time>2015-12-04T18:41:07Z</time>
      </trkpt>
      <trkpt lat="49.20584" lon="0.20844">
        <ele>109.054</ele>
        <time>2015-12-04T18:41:27Z</time>
      </trkpt>
      <trkpt lat="49.20629" lon="0.20781">
        <ele>117.071</ele>
        <time>2015-12-04T18:41:47Z</time>
      </trkpt>
      <trkpt lat="49.20666" lon="0.20746">
        <ele>122.079</ele>
        <time>2015-12-04T18:42:07Z</time>
      </trkpt>
      <trkpt lat="49.20691" lon="0.20701">
        <ele>124.014</ele>
        <time>2015-12-04T18:42:27Z</time>
      </trkpt>
      <trkpt lat="49.20704" lon="0.20658">
        <ele>127.054</ele>
        <time>2015-12-04T18:42:47Z</time>
      </trkpt>
      <trkpt lat="49.2072" lon="0.20638">
        <ele>127.009</ele>
        <time>2015-12-04T18:43:07Z</time>
      </trkpt>
      <trkpt lat="49.20766" lon="0.20532">
        <ele>133.008</ele>
        <time>2015-12-04T18:43:27Z</time>
      </trkpt>
      <trkpt lat="49.20792" lon="0.20493">
        <ele>132.087</ele>
        <time>2015-12-04T18:43:47Z</time>
      </trkpt>
      <trkpt lat="49.20814" lon="0.20473">
        <ele>132.043</ele>
        <time>2015-12-04T18:44:07Z</time>
      </trkpt>
      <trkpt lat="49.20871" lon="0.20408">
        <ele>129.072</ele>
        <time>2015-12-04T18:44:27Z</time>
      </trkpt>
      <trkpt lat="49.20942" lon="0.20315">
        <ele>128.041</ele>
        <time>2015-12-04T18:44:47Z</time>
      </trkpt>
      <trkpt lat="49.20987" lon="0.20243">
        <ele>127.031</ele>
        <time>2015-12-04T18:45:07Z</time>
      </trkpt>
      <trkpt lat="49.2112" lon="0.19987">
        <ele>132.099</ele>
        <time>2015-12-04T18:45:27Z</time>
      </trkpt>
      <trkpt lat="49.21184" lon="0.19854">
        <ele>133.036</ele>
        <time>2015-12-04T18:45:47Z</time>
      </trkpt>
      <trkpt lat="49.21279" lon="0.1977">
        <ele>134.084</ele>
        <time>2015-12-04T18:46:07Z</time>
      </trkpt>
      <trkpt lat="49.21317" lon="0.19722">
        <ele>135.017</ele>
        <time>2015-12-04T18:46:27Z</time>
      </trkpt>
      <trkpt lat="49.213" lon="0.19632">
        <ele>135.087</ele>
        <time>2015-12-04T18:46:47Z</time>
      </trkpt>
      <trkpt lat="49.21267" lon="0.19642">
        <ele>136.015</ele>
        <time>2015-12-04T18:47:07Z</time>
      </trkpt>
      <trkpt lat="49.21201" lon="0.19432">
        <ele>133.008</ele>
        <time>2015-12-04T18:47:27Z</time>
      </trkpt>
      <trkpt lat="49.21209" lon="0.19415">
        <ele>133.087</ele>
        <time>2015-12-04T18:47:47Z</time>
      </trkpt>
      <trkpt lat="49.21211" lon="0.19376">
        <ele>133.033</ele>
        <time>2015-12-04T18:48:07Z</time>
      </trkpt>
      <trkpt lat="49.21203" lon="0.19319">
        <ele>133.082</ele>
        <time>2015-12-04T18:48:27Z</time>
      </trkpt>
      <trkpt lat="49.21209" lon="0.19247">
        <ele>134.061</ele>
        <time>2015-12-04T18:48:47Z</time>
      </trkpt>
      <trkpt lat="49.21209" lon="0.19173">
        <ele>134.041</ele>
        <time>2015-12-04T18:49:07Z</time>
      </trkpt>
      <trkpt lat="49.21218" lon="0.19111">
        <ele>134.029</ele>
        <time>2015-12-04T18:49:27Z</time>
      </trkpt>
      <trkpt lat="49.2131" lon="0.18777">
        <ele>140.086</ele>
        <time>2015-12-04T18:49:47Z</time>
      </trkpt>
      <trkpt lat="49.21328" lon="0.18628">
        <ele>142.334</ele>
        <time>2020-12-13T04:10:07Z</time>
      </trkpt>
      <trkpt lat="49.21521" lon="0.18577">
        <ele>144.082</ele>
        <time>2015-12-04T18:52:47Z</time>
      </trkpt>
      <trkpt lat="49.21604" lon="0.18604">
        <ele>144.043</ele>
        <time>2015-12-04T18:53:07Z</time>
      </trkpt>
      <trkpt lat="49.21665" lon="0.18644">
        <ele>145.017</ele>
        <time>2015-12-04T18:53:27Z</time>
      </trkpt>
      <trkpt lat="49.21784" lon="0.18706">
        <ele>144.008</ele>
        <time>2015-12-04T18:53:47Z</time>
      </trkpt>
      <trkpt lat="49.2185" lon="0.18766">
        <ele>144.094</ele>
        <time>2015-12-04T18:54:07Z</time>
      </trkpt>
      <trkpt lat="49.2188" lon="0.18773">
        <ele>144.06</ele>
        <time>2015-12-04T18:54:27Z</time>
      </trkpt>
      <trkpt lat="49.21924" lon="0.18745">
        <ele>145.059</ele>
        <time>2015-12-04T18:54:47Z</time>
      </trkpt>
      <trkpt lat="49.21987" lon="0.18743">
        <ele>145.018</ele>
        <time>2015-12-04T18:55:07Z</time>
      </trkpt>
      <trkpt lat="49.22008" lon="0.18766">
        <ele>146.078</ele>
        <time>2015-12-04T18:55:27Z</time>
      </trkpt>
      <trkpt lat="49.22095" lon="0.18851">
        <ele>144.096</ele>
        <time>2015-12-04T18:55:47Z</time>
      </trkpt>
      <trkpt lat="49.22156" lon="0.18787">
        <ele>143.053</ele>
        <time>2015-12-04T18:56:07Z</time>
      </trkpt>
      <trkpt lat="49.22211" lon="0.18746">
        <ele>142.051</ele>
        <time>2015-12-04T18:56:27Z</time>
      </trkpt>
      <trkpt lat="49.22386" lon="0.18623">
        <ele>139.034</ele>
        <time>2015-12-04T18:56:47Z</time>
      </trkpt>
      <trkpt lat="49.22478" lon="0.18549">
        <ele>141.055</ele>
        <time>2015-12-04T18:57:07Z</time>
      </trkpt>
      <trkpt lat="49.22587" lon="0.18534">
        <ele>136.01</ele>
        <time>2015-12-04T18:57:27Z</time>
      </trkpt>
      <trkpt lat="49.22686" lon="0.18534">
        <ele>136.008</ele>
        <time>2015-12-04T18:57:47Z</time>
      </trkpt>
      <trkpt lat="49.22826" lon="0.18546">
        <ele>140.099</ele>
        <time>2015-12-04T18:58:07Z</time>
      </trkpt>
      <trkpt lat="49.22877" lon="0.18559">
        <ele>140.085</ele>
        <time>2015-12-04T18:58:27Z</time>
      </trkpt>
      <trkpt lat="49.22928" lon="0.18561">
        <ele>140.044</ele>
        <time>2015-12-04T18:58:47Z</time>
      </trkpt>
      <trkpt lat="49.23085" lon="0.18511">
        <ele>140.013</ele>
        <time>2015-12-04T18:59:07Z</time>
      </trkpt>
      <trkpt lat="49.23214" lon="0.18504">
        <ele>139.043</ele>
        <time>2015-12-04T18:59:27Z</time>
      </trkpt>
      <trkpt lat="49.23327" lon="0.1851">
        <ele>138.011</ele>
        <time>2015-12-04T18:59:47Z</time>
      </trkpt>
      <trkpt lat="49.23304" lon="0.18706">
        <ele>134.038</ele>
        <time>2015-12-04T19:00:07Z</time>
      </trkpt>
      <trkpt lat="49.23434" lon="0.18696">
        <ele>134.066</ele>
        <time>2015-12-04T19:00:27Z</time>
      </trkpt>
      <trkpt lat="49.23496" lon="0.18733">
        <ele>132.053</ele>
        <time>2015-12-04T19:00:47Z</time>
      </trkpt>
      <trkpt lat="49.23532" lon="0.18768">
        <ele>130.004</ele>
        <time>2015-12-04T19:01:07Z</time>
      </trkpt>
      <trkpt lat="49.23655" lon="0.18904">
        <ele>130.014</ele>
        <time>2015-12-04T19:01:27Z</time>
      </trkpt>
      <trkpt lat="49.23738" lon="0.18953">
        <ele>129.008</ele>
        <time>2015-12-04T19:01:47Z</time>
      </trkpt>
      <trkpt lat="49.23872" lon="0.19033">
        <ele>126.081</ele>
        <time>2015-12-04T19:02:07Z</time>
      </trkpt>
      <trkpt lat="49.23912" lon="0.19059">
        <ele>125.027</ele>
        <time>2015-12-04T19:02:27Z</time>
      </trkpt>
      <trkpt lat="49.24016" lon="0.19081">
        <ele>129.046</ele>
        <time>2015-12-04T19:02:47Z</time>
      </trkpt>
      <trkpt lat="49.24112" lon="0.19134">
        <ele>132.045</ele>
        <time>2015-12-04T19:03:07Z</time>
      </trkpt>
      <trkpt lat="49.24146" lon="0.1914">
        <ele>133.035</ele>
        <time>2015-12-04T19:03:27Z</time>
      </trkpt>
      <trkpt lat="49.24177" lon="0.1916">
        <ele>134.013</ele>
        <time>2015-12-04T19:03:47Z</time>
      </trkpt>
      <trkpt lat="49.24215" lon="0.19146">
        <ele>134.09</ele>
        <time>2015-12-04T19:04:07Z</time>
      </trkpt>
      <trkpt lat="49.24235" lon="0.19125">
        <ele>134.038</ele>
        <time>2015-12-04T19:04:27Z</time>
      </trkpt>
      <trkpt lat="49.2425" lon="0.191">
        <ele>134.094</ele>
        <time>2015-12-04T19:04:47Z</time>
      </trkpt>
      <trkpt lat="49.24285" lon="0.19069">
        <ele>133.057</ele>
        <time>2015-12-04T19:05:07Z</time>
      </trkpt>
      <trkpt lat="49.24299" lon="0.19074">
        <ele>133.022</ele>
        <time>2015-12-04T19:05:27Z</time>
      </trkpt>
      <trkpt lat="49.24323" lon="0.19122">
        <ele>133.008</ele>
        <time>2015-12-04T19:05:47Z</time>
      </trkpt>
      <trkpt lat="49.2436" lon="0.19158">
        <ele>131.095</ele>
        <time>2015-12-04T19:06:07Z</time>
      </trkpt>
      <trkpt lat="49.24384" lon="0.19196">
        <ele>131.011</ele>
        <time>2015-12-04T19:06:27Z</time>
      </trkpt>
      <trkpt lat="49.24404" lon="0.19202">
        <ele>131.06</ele>
        <time>2015-12-04T19:06:47Z</time>
      </trkpt>
      <trkpt lat="49.24586" lon="0.19224">
        <ele>127.049</ele>
        <time>2015-12-04T19:07:07Z</time>
      </trkpt>
      <trkpt lat="49.24646" lon="0.1917">
        <ele>127.049</ele>
        <time>2015-12-04T19:07:27Z</time>
      </trkpt>
      <trkpt lat="49.24736" lon="0.19164">
        <ele>122.027</ele>
        <time>2015-12-04T19:07:47Z</time>
      </trkpt>
      <trkpt lat="49.24834" lon="0.1914">
        <ele>119.044</ele>
        <time>2015-12-04T19:08:07Z</time>
      </trkpt>
      <trkpt lat="49.24936" lon="0.1914">
        <ele>118.062</ele>
        <time>2015-12-04T19:08:27Z</time>
      </trkpt>
      <trkpt lat="49.25097" lon="0.19115">
        <ele>118.012</ele>
        <time>2015-12-04T19:08:47Z</time>
      </trkpt>
      <trkpt lat="49.25132" lon="0.19116">
        <ele>117.032</ele>
        <time>2015-12-04T19:09:07Z</time>
      </trkpt>
      <trkpt lat="49.25216" lon="0.19162">
        <ele>117.005</ele>
        <time>2015-12-04T19:09:27Z</time>
      </trkpt>
      <trkpt lat="49.25263" lon="0.19162">
        <ele>116.008</ele>
        <time>2015-12-04T19:09:47Z</time>
      </trkpt>
      <trkpt lat="49.25343" lon="0.19143">
        <ele>117.047</ele>
        <time>2015-12-04T19:10:07Z</time>
      </trkpt>
      <trkpt lat="49.25337" lon="0.19056">
        <ele>118.063</ele>
        <time>2015-12-04T19:10:27Z</time>
      </trkpt>
      <trkpt lat="49.25288" lon="0.18738">
        <ele>116.072</ele>
        <time>2015-12-04T19:10:47Z</time>
      </trkpt>
      <trkpt lat="49.25244" lon="0.18635">
        <ele>115.031</ele>
        <time>2015-12-04T19:11:07Z</time>
      </trkpt>
      <trkpt lat="49.25214" lon="0.18533">
        <ele>114.061</ele>
        <time>2015-12-04T19:11:27Z</time>
      </trkpt>
      <trkpt lat="49.25265" lon="0.18478">
        <ele>115.089</ele>
        <time>2015-12-04T19:11:47Z</time>
      </trkpt>
      <trkpt lat="49.25301" lon="0.18429">
        <ele>115.076</ele>
        <time>2015-12-04T19:12:07Z</time>
      </trkpt>
      <trkpt lat="49.25326" lon="0.18356">
        <ele>115.064</ele>
        <time>2015-12-04T19:12:27Z</time>
      </trkpt>
      <trkpt lat="49.2537" lon="0.1818">
        <ele>115.044</ele>
        <time>2015-12-04T19:12:47Z</time>
      </trkpt>
      <trkpt lat="49.25359" lon="0.18163">
        <ele>115.005</ele>
        <time>2015-12-04T19:13:07Z</time>
      </trkpt>
      <trkpt lat="49.25353" lon="0.18131">
        <ele>115.015</ele>
        <time>2015-12-04T19:13:27Z</time>
      </trkpt>
      <trkpt lat="49.25391" lon="0.18091">
        <ele>115.008</ele>
        <time>2015-12-04T19:13:47Z</time>
      </trkpt>
      <trkpt lat="49.25432" lon="0.18">
        <ele>119.04</ele>
        <time>2015-12-04T19:14:07Z</time>
      </trkpt>
      <trkpt lat="49.25446" lon="0.17953">
        <ele>119.086</ele>
        <time>2015-12-04T19:14:27Z</time>
      </trkpt>
      <trkpt lat="49.25456" lon="0.1791">
        <ele>121.065</ele>
        <time>2015-12-04T19:14:47Z</time>
      </trkpt>
      <trkpt lat="49.25482" lon="0.17856">
        <ele>121.094</ele>
        <time>2015-12-04T19:15:07Z</time>
      </trkpt>
      <trkpt lat="49.25554" lon="0.17758">
        <ele>118.094</ele>
        <time>2015-12-04T19:15:27Z</time>
      </trkpt>
      <trkpt lat="49.25571" lon="0.17716">
        <ele>119.022</ele>
        <time>2015-12-04T19:15:47Z</time>
      </trkpt>
      <trkpt lat="49.25589" lon="0.17649">
        <ele>118.099</ele>
        <time>2015-12-04T19:16:07Z</time>
      </trkpt>
      <trkpt lat="49.25625" lon="0.17573">
        <ele>118.017</ele>
        <time>2015-12-04T19:16:27Z</time>
      </trkpt>
      <trkpt lat="49.25656" lon="0.17463">
        <ele>118.013</ele>
        <time>2015-12-04T19:16:47Z</time>
      </trkpt>
      <trkpt lat="49.25668" lon="0.17433">
        <ele>116.043</ele>
        <time>2015-12-04T19:17:07Z</time>
      </trkpt>
      <trkpt lat="49.25721" lon="0.17351">
        <ele>115.007</ele>
        <time>2015-12-04T19:17:27Z</time>
      </trkpt>
      <trkpt lat="49.25723" lon="0.17273">
        <ele>111.008</ele>
        <time>2015-12-04T19:17:47Z</time>
      </trkpt>
      <trkpt lat="49.25702" lon="0.17171">
        <ele>101.057</ele>
        <time>2015-12-04T19:18:07Z</time>
      </trkpt>
      <trkpt lat="49.25622" lon="0.1717">
        <ele>99.083</ele>
        <time>2015-12-04T19:18:27Z</time>
      </trkpt>
      <trkpt lat="49.25595" lon="0.17146">
        <ele>87.032</ele>
        <time>2015-12-04T19:18:47Z</time>
      </trkpt>
      <trkpt lat="49.2556" lon="0.17182">
        <ele>86.051</ele>
        <time>2015-12-04T19:19:07Z</time>
      </trkpt>
      <trkpt lat="49.25506" lon="0.17227">
        <ele>84.061</ele>
        <time>2015-12-04T19:19:27Z</time>
      </trkpt>
      <trkpt lat="49.25414" lon="0.1733">
        <ele>67.099</ele>
        <time>2015-12-04T19:19:47Z</time>
      </trkpt>
      <trkpt lat="49.25362" lon="0.17396">
        <ele>68.096</ele>
        <time>2015-12-04T19:20:07Z</time>
      </trkpt>
      <trkpt lat="49.25364" lon="0.17325">
        <ele>63.054</ele>
        <time>2015-12-04T19:20:27Z</time>
      </trkpt>
      <trkpt lat="49.25371" lon="0.173">
        <ele>63.096</ele>
        <time>2015-12-04T19:20:47Z</time>
      </trkpt>
      <trkpt lat="49.25358" lon="0.17287">
        <ele>63.031</ele>
        <time>2015-12-04T19:21:07Z</time>
      </trkpt>
      <trkpt lat="49.25333" lon="0.17279">
        <ele>67.024</ele>
        <time>2015-12-04T19:21:27Z</time>
      </trkpt>
      <trkpt lat="49.25265" lon="0.17243">
        <ele>79.008</ele>
        <time>2015-12-04T19:21:47Z</time>
      </trkpt>
      <trkpt lat="49.25301" lon="0.17183">
        <ele>76.015</ele>
        <time>2015-12-04T19:22:07Z</time>
      </trkpt>
      <trkpt lat="49.25336" lon="0.17028">
        <ele>74.071</ele>
        <time>2015-12-04T19:22:27Z</time>
      </trkpt>
      <trkpt lat="49.25304" lon="0.17014">
        <ele>85.07</ele>
        <time>2015-12-04T19:22:47Z</time>
      </trkpt>
      <trkpt lat="49.25325" lon="0.16944">
        <ele>82.069</ele>
        <time>2015-12-04T19:23:07Z</time>
      </trkpt>
      <trkpt lat="49.25372" lon="0.1672">
        <ele>63.069</ele>
        <time>2015-12-04T19:23:27Z</time>
      </trkpt>
      <trkpt lat="49.25383" lon="0.16627">
        <ele>59.017</ele>
        <time>2015-12-04T19:23:47Z</time>
      </trkpt>
      <trkpt lat="49.25406" lon="0.16519">
        <ele>53.014</ele>
        <time>2015-12-04T19:24:07Z</time>
      </trkpt>
      <trkpt lat="49.25436" lon="0.16443">
        <ele>44.042</ele>
        <time>2015-12-04T19:24:27Z</time>
      </trkpt>
      <trkpt lat="49.25475" lon="0.1647">
        <ele>44.019</ele>
        <time>2015-12-04T19:24:47Z</time>
      </trkpt>
      <trkpt lat="49.25602" lon="0.16536">
        <ele>40.009</ele>
        <time>2015-12-04T19:25:07Z</time>
      </trkpt>
      <trkpt lat="49.25637" lon="0.16563">
        <ele>39.019</ele>
        <time>2015-12-04T19:25:27Z</time>
      </trkpt>
      <trkpt lat="49.25657" lon="0.16598">
        <ele>39.008</ele>
        <time>2015-12-04T19:25:47Z</time>
      </trkpt>
      <trkpt lat="49.25684" lon="0.16693">
        <ele>43.017</ele>
        <time>2015-12-04T19:26:07Z</time>
      </trkpt>
      <trkpt lat="49.25699" lon="0.16654">
        <ele>40.013</ele>
        <time>2015-12-04T19:26:27Z</time>
      </trkpt>
      <trkpt lat="49.25721" lon="0.16638">
        <ele>40.012</ele>
        <time>2015-12-04T19:26:47Z</time>
      </trkpt>
      <trkpt lat="49.25744" lon="0.16641">
        <ele>40.061</ele>
        <time>2015-12-04T19:27:07Z</time>
      </trkpt>
      <trkpt lat="49.25778" lon="0.16652">
        <ele>41.041</ele>
        <time>2015-12-04T19:27:27Z</time>
      </trkpt>
      <trkpt lat="49.25801" lon="0.16634">
        <ele>41.089</ele>
        <time>2015-12-04T19:27:47Z</time>
      </trkpt>
      <trkpt lat="49.25809" lon="0.16595">
        <ele>40.046</ele>
        <time>2015-12-04T19:28:07Z</time>
      </trkpt>
      <trkpt lat="49.25795" lon="0.16455">
        <ele>37.014</ele>
        <time>2015-12-04T19:28:27Z</time>
      </trkpt>
      <trkpt lat="49.25803" lon="0.16417">
        <ele>38.092</ele>
        <time>2015-12-04T19:28:47Z</time>
      </trkpt>
      <trkpt lat="49.25982" lon="0.1614">
        <ele>54.073</ele>
        <time>2015-12-04T19:29:07Z</time>
      </trkpt>
      <trkpt lat="49.25958" lon="0.16126">
        <ele>55.02</ele>
        <time>2015-12-04T19:29:27Z</time>
      </trkpt>
      <trkpt lat="49.2586" lon="0.16109">
        <ele>55.008</ele>
        <time>2015-12-04T19:29:47Z</time>
      </trkpt>
      <trkpt lat="49.25803" lon="0.16092">
        <ele>54.055</ele>
        <time>2015-12-04T19:30:07Z</time>
      </trkpt>
      <trkpt lat="49.25765" lon="0.16074">
        <ele>55.041</ele>
        <time>2015-12-04T19:30:27Z</time>
      </trkpt>
      <trkpt lat="49.25536" lon="0.16004">
        <ele>54.06</ele>
        <time>2015-12-04T19:30:47Z</time>
      </trkpt>
      <trkpt lat="49.25503" lon="0.15956">
        <ele>58.039</ele>
        <time>2015-12-04T19:31:07Z</time>
      </trkpt>
      <trkpt lat="49.25517" lon="0.15915">
        <ele>61.099</ele>
        <time>2015-12-04T19:31:27Z</time>
      </trkpt>
      <trkpt lat="49.25518" lon="0.15879">
        <ele>63.077</ele>
        <time>2015-12-04T19:31:47Z</time>
      </trkpt>
      <trkpt lat="49.25569" lon="0.15754">
        <ele>70.064</ele>
        <time>2015-12-04T19:32:07Z</time>
      </trkpt>
      <trkpt lat="49.25606" lon="0.15647">
        <ele>88.082</ele>
        <time>2015-12-04T19:32:27Z</time>
      </trkpt>
      <trkpt lat="49.25618" lon="0.15597">
        <ele>92.047</ele>
        <time>2015-12-04T19:32:47Z</time>
      </trkpt>
      <trkpt lat="49.25616" lon="0.15558">
        <ele>100.029</ele>
        <time>2015-12-04T19:33:07Z</time>
      </trkpt>
      <trkpt lat="49.25579" lon="0.15529">
        <ele>98.021</ele>
        <time>2015-12-04T19:33:27Z</time>
      </trkpt>
      <trkpt lat="49.25561" lon="0.155">
        <ele>99.008</ele>
        <time>2015-12-04T19:33:47Z</time>
      </trkpt>
      <trkpt lat="49.2556" lon="0.15471">
        <ele>102.05</ele>
        <time>2015-12-04T19:34:07Z</time>
      </trkpt>
      <trkpt lat="49.25572" lon="0.15376">
        <ele>101.056</ele>
        <time>2015-12-04T19:34:27Z</time>
      </trkpt>
      <trkpt lat="49.25614" lon="0.15238">
        <ele>104.085</ele>
        <time>2015-12-04T19:34:47Z</time>
      </trkpt>
      <trkpt lat="49.25639" lon="0.15191">
        <ele>105.074</ele>
        <time>2015-12-04T19:35:07Z</time>
      </trkpt>
      <trkpt lat="49.25645" lon="0.15154">
        <ele>104.064</ele>
        <time>2015-12-04T19:35:27Z</time>
      </trkpt>
      <trkpt lat="49.25589" lon="0.15089">
        <ele>96.012</ele>
        <time>2015-12-04T19:35:47Z</time>
      </trkpt>
      <trkpt lat="49.25513" lon="0.15024">
        <ele>80.099</ele>
        <time>2015-12-04T19:36:07Z</time>
      </trkpt>
      <trkpt lat="49.25553" lon="0.14916">
        <ele>85.027</ele>
        <time>2015-12-04T19:36:27Z</time>
      </trkpt>
      <trkpt lat="49.25574" lon="0.14876">
        <ele>85.055</ele>
        <time>2015-12-04T19:36:47Z</time>
      </trkpt>
      <trkpt lat="49.25609" lon="0.14827">
        <ele>91.007</ele>
        <time>2015-12-04T19:37:07Z</time>
      </trkpt>
      <trkpt lat="49.25629" lon="0.14791">
        <ele>93.017</ele>
        <time>2015-12-04T19:37:27Z</time>
      </trkpt>
      <trkpt lat="49.25663" lon="0.14715">
        <ele>95.008</ele>
        <time>2015-12-04T19:37:47Z</time>
      </trkpt>
      <trkpt lat="49.2569" lon="0.14638">
        <ele>97.091</ele>
        <time>2015-12-04T19:38:07Z</time>
      </trkpt>
      <trkpt lat="49.25725" lon="0.14586">
        <ele>99.077</ele>
        <time>2015-12-04T19:38:27Z</time>
      </trkpt>
      <trkpt lat="49.25779" lon="0.14526">
        <ele>102.076</ele>
        <time>2015-12-04T19:38:47Z</time>
      </trkpt>
      <trkpt lat="49.25893" lon="0.14394">
        <ele>105.095</ele>
        <time>2015-12-04T19:39:07Z</time>
      </trkpt>
      <trkpt lat="49.25917" lon="0.14357">
        <ele>107.045</ele>
        <time>2015-12-04T19:39:27Z</time>
      </trkpt>
      <trkpt lat="49.25992" lon="0.14275">
        <ele>110.093</ele>
        <time>2015-12-04T19:39:47Z</time>
      </trkpt>
      <trkpt lat="49.26034" lon="0.14237">
        <ele>113.07</ele>
        <time>2015-12-04T19:40:07Z</time>
      </trkpt>
      <trkpt lat="49.26062" lon="0.14247">
        <ele>114.068</ele>
        <time>2015-12-04T19:40:27Z</time>
      </trkpt>
      <trkpt lat="49.26084" lon="0.14244">
        <ele>116.069</ele>
        <time>2015-12-04T19:40:47Z</time>
      </trkpt>
      <trkpt lat="49.26187" lon="0.14183">
        <ele>118.004</ele>
        <time>2015-12-04T19:41:07Z</time>
      </trkpt>
      <trkpt lat="49.26207" lon="0.14156">
        <ele>118.024</ele>
        <time>2015-12-04T19:41:27Z</time>
      </trkpt>
      <trkpt lat="49.26219" lon="0.14114">
        <ele>118.008</ele>
        <time>2015-12-04T19:41:47Z</time>
      </trkpt>
      <trkpt lat="49.26307" lon="0.14111">
        <ele>120.062</ele>
        <time>2015-12-04T19:42:07Z</time>
      </trkpt>
      <trkpt lat="49.26394" lon="0.14091">
        <ele>122.018</ele>
        <time>2015-12-04T19:42:27Z</time>
      </trkpt>
      <trkpt lat="49.26357" lon="0.1373">
        <ele>123.057</ele>
        <time>2015-12-04T19:42:47Z</time>
      </trkpt>
      <trkpt lat="49.26371" lon="0.13732">
        <ele>123.056</ele>
        <time>2015-12-04T19:43:07Z</time>
      </trkpt>
      <trkpt lat="49.26412" lon="0.13753">
        <ele>124.036</ele>
        <time>2015-12-04T19:43:27Z</time>
      </trkpt>
      <trkpt lat="49.26474" lon="0.13775">
        <ele>124.054</ele>
        <time>2015-12-04T19:43:47Z</time>
      </trkpt>
      <trkpt lat="49.26489" lon="0.13763">
        <ele>124.071</ele>
        <time>2015-12-04T19:44:07Z</time>
      </trkpt>
      <trkpt lat="49.26527" lon="0.13619">
        <ele>124.059</ele>
        <time>2015-12-04T19:44:27Z</time>
      </trkpt>
      <trkpt lat="49.2656" lon="0.13505">
        <ele>122.086</ele>
        <time>2015-12-04T19:44:47Z</time>
      </trkpt>
      <trkpt lat="49.26568" lon="0.13426">
        <ele>121.06</ele>
        <time>2015-12-04T19:45:07Z</time>
      </trkpt>
      <trkpt lat="49.26593" lon="0.13312">
        <ele>123.026</ele>
        <time>2015-12-04T19:45:27Z</time>
      </trkpt>
      <trkpt lat="49.26605" lon="0.13301">
        <ele>123.008</ele>
        <time>2015-12-04T19:45:47Z</time>
      </trkpt>
      <trkpt lat="49.26611" lon="0.13287">
        <ele>123.074</ele>
        <time>2015-12-04T19:46:07Z</time>
      </trkpt>
      <trkpt lat="49.26628" lon="0.13272">
        <ele>122.05</ele>
        <time>2015-12-04T19:46:27Z</time>
      </trkpt>
      <trkpt lat="49.26642" lon="0.13211">
        <ele>123.019</ele>
        <time>2015-12-04T19:46:47Z</time>
      </trkpt>
      <trkpt lat="49.2664" lon="0.13155">
        <ele>124.068</ele>
        <time>2015-12-04T19:47:07Z</time>
      </trkpt>
      <trkpt lat="49.26648" lon="0.12932">
        <ele>123.088</ele>
        <time>2015-12-04T19:47:27Z</time>
      </trkpt>
      <trkpt lat="49.26881" lon="0.1298">
        <ele>119.096</ele>
        <time>2015-12-04T19:47:47Z</time>
      </trkpt>
      <trkpt lat="49.26927" lon="0.13014">
        <ele>117.033</ele>
        <time>2015-12-04T19:48:07Z</time>
      </trkpt>
      <trkpt lat="49.27005" lon="0.13047">
        <ele>112.081</ele>
        <time>2015-12-04T19:48:27Z</time>
      </trkpt>
      <trkpt lat="49.27013" lon="0.12976">
        <ele>114.077</ele>
        <time>2015-12-04T19:48:47Z</time>
      </trkpt>
      <trkpt lat="49.27032" lon="0.12921">
        <ele>115.061</ele>
        <time>2015-12-04T19:49:07Z</time>
      </trkpt>
      <trkpt lat="49.27041" lon="0.12871">
        <ele>116.027</ele>
        <time>2015-12-04T19:49:27Z</time>
      </trkpt>
      <trkpt lat="49.27116" lon="0.12807">
        <ele>113.008</ele>
        <time>2015-12-04T19:49:47Z</time>
      </trkpt>
      <trkpt lat="49.27179" lon="0.12773">
        <ele>107.033</ele>
        <time>2015-12-04T19:50:07Z</time>
      </trkpt>
      <trkpt lat="49.27233" lon="0.12759">
        <ele>102.019</ele>
        <time>2015-12-04T19:50:27Z</time>
      </trkpt>
      <trkpt lat="49.27274" lon="0.12617">
        <ele>93.088</ele>
        <time>2015-12-04T19:50:47Z</time>
      </trkpt>
      <trkpt lat="49.2732" lon="0.12486">
        <ele>87.067</ele>
        <time>2015-12-04T19:51:07Z</time>
      </trkpt>
      <trkpt lat="49.27328" lon="0.12428">
        <ele>85.017</ele>
        <time>2015-12-04T19:51:27Z</time>
      </trkpt>
      <trkpt lat="49.2733" lon="0.12401">
        <ele>84.095</ele>
        <time>2015-12-04T19:51:47Z</time>
      </trkpt>
      <trkpt lat="49.27352" lon="0.12352">
        <ele>79.052</ele>
        <time>2015-12-04T19:52:07Z</time>
      </trkpt>
      <trkpt lat="49.27393" lon="0.12281">
        <ele>74.02</ele>
        <time>2015-12-04T19:52:27Z</time>
      </trkpt>
      <trkpt lat="49.2739" lon="0.12239">
        <ele>71.045</ele>
        <time>2015-12-04T19:52:47Z</time>
      </trkpt>
      <trkpt lat="49.27399" lon="0.12194">
        <ele>69.047</ele>
        <time>2015-12-04T19:53:07Z</time>
      </trkpt>
      <trkpt lat="49.27437" lon="0.1218">
        <ele>65.011</ele>
        <time>2015-12-04T19:53:27Z</time>
      </trkpt>
      <trkpt lat="49.2746" lon="0.12138">
        <ele>61.008</ele>
        <time>2015-12-04T19:53:47Z</time>
      </trkpt>
      <trkpt lat="49.27466" lon="0.12105">
        <ele>61.03</ele>
        <time>2015-12-04T19:54:07Z</time>
      </trkpt>
      <trkpt lat="49.27475" lon="0.1208">
        <ele>58.056</ele>
        <time>2015-12-04T19:54:27Z</time>
      </trkpt>
      <trkpt lat="49.27482" lon="0.12034">
        <ele>57.035</ele>
        <time>2015-12-04T19:54:47Z</time>
      </trkpt>
      <trkpt lat="49.27482" lon="0.11994">
        <ele>55.084</ele>
        <time>2015-12-04T19:55:07Z</time>
      </trkpt>
      <trkpt lat="49.27487" lon="0.11948">
        <ele>54.034</ele>
        <time>2015-12-04T19:55:27Z</time>
      </trkpt>
      <trkpt lat="49.27536" lon="0.11764">
        <ele>44.092</ele>
        <time>2015-12-04T19:55:47Z</time>
      </trkpt>
      <trkpt lat="49.27565" lon="0.11636">
        <ele>45.099</ele>
        <time>2015-12-04T19:56:07Z</time>
      </trkpt>
      <trkpt lat="49.27582" lon="0.11541">
        <ele>48.077</ele>
        <time>2015-12-04T19:56:27Z</time>
      </trkpt>
      <trkpt lat="49.27577" lon="0.11471">
        <ele>52.049</ele>
        <time>2015-12-04T19:56:47Z</time>
      </trkpt>
      <trkpt lat="49.27564" lon="0.11364">
        <ele>56.002</ele>
        <time>2015-12-04T19:57:07Z</time>
      </trkpt>
      <trkpt lat="49.27618" lon="0.11273">
        <ele>60.022</ele>
        <time>2015-12-04T19:57:27Z</time>
      </trkpt>
      <trkpt lat="49.27629" lon="0.11187">
        <ele>65.008</ele>
        <time>2015-12-04T19:57:47Z</time>
      </trkpt>
      <trkpt lat="49.27643" lon="0.11157">
        <ele>70.02</ele>
        <time>2015-12-04T19:58:07Z</time>
      </trkpt>
      <trkpt lat="49.27711" lon="0.11125">
        <ele>77.036</ele>
        <time>2015-12-04T19:58:27Z</time>
      </trkpt>
      <trkpt lat="49.27818" lon="0.11128">
        <ele>86.075</ele>
        <time>2015-12-04T19:58:47Z</time>
      </trkpt>
      <trkpt lat="49.27829" lon="0.11052">
        <ele>90.074</ele>
        <time>2015-12-04T19:59:07Z</time>
      </trkpt>
      <trkpt lat="49.2786" lon="0.10935">
        <ele>89.064</ele>
        <time>2015-12-04T19:59:27Z</time>
      </trkpt>
      <trkpt lat="49.27861" lon="0.10901">
        <ele>86.082</ele>
        <time>2015-12-04T19:59:47Z</time>
      </trkpt>
      <trkpt lat="49.2782" lon="0.10727">
        <ele>77.039</ele>
        <time>2015-12-04T20:00:07Z</time>
      </trkpt>
      <trkpt lat="49.27792" lon="0.10655">
        <ele>72.097</ele>
        <time>2015-12-04T20:00:27Z</time>
      </trkpt>
      <trkpt lat="49.27758" lon="0.10651">
        <ele>74.025</ele>
        <time>2015-12-04T20:00:47Z</time>
      </trkpt>
      <trkpt lat="49.27745" lon="0.1064">
        <ele>77.026</ele>
        <time>2015-12-04T20:01:07Z</time>
      </trkpt>
      <trkpt lat="49.27728" lon="0.10601">
        <ele>76.008</ele>
        <time>2015-12-04T20:01:27Z</time>
      </trkpt>
      <trkpt lat="49.27686" lon="0.10544">
        <ele>73.008</ele>
        <time>2015-12-04T20:01:47Z</time>
      </trkpt>
      <trkpt lat="49.2762" lon="0.10479">
        <ele>81.038</ele>
        <time>2015-12-04T20:02:07Z</time>
      </trkpt>
      <trkpt lat="49.27595" lon="0.10465">
        <ele>83.094</ele>
        <time>2015-12-04T20:02:27Z</time>
      </trkpt>
      <trkpt lat="49.27592" lon="0.10448">
        <ele>83.073</ele>
        <time>2015-12-04T20:02:47Z</time>
      </trkpt>
      <trkpt lat="49.27604" lon="0.10365">
        <ele>80.012</ele>
        <time>2015-12-04T20:03:07Z</time>
      </trkpt>
      <trkpt lat="49.27599" lon="0.10344">
        <ele>81.092</ele>
        <time>2015-12-04T20:03:27Z</time>
      </trkpt>
      <trkpt lat="49.27566" lon="0.10268">
        <ele>83.06</ele>
        <time>2015-12-04T20:03:47Z</time>
      </trkpt>
      <trkpt lat="49.27537" lon="0.10183">
        <ele>85.067</ele>
        <time>2015-12-04T20:04:07Z</time>
      </trkpt>
      <trkpt lat="49.27539" lon="0.10156">
        <ele>88.065</ele>
        <time>2015-12-04T20:04:27Z</time>
      </trkpt>
      <trkpt lat="49.27562" lon="0.10125">
        <ele>89.019</ele>
        <time>2015-12-04T20:04:47Z</time>
      </trkpt>
      <trkpt lat="49.27583" lon="0.10115">
        <ele>88.009</ele>
        <time>2015-12-04T20:05:07Z</time>
      </trkpt>
      <trkpt lat="49.27601" lon="0.10115">
        <ele>83.019</ele>
        <time>2015-12-04T20:05:27Z</time>
      </trkpt>
      <trkpt lat="49.27626" lon="0.10096">
        <ele>83.008</ele>
        <time>2015-12-04T20:05:47Z</time>
      </trkpt>
      <trkpt lat="49.27624" lon="0.10077">
        <ele>90.037</ele>
        <time>2015-12-04T20:06:07Z</time>
      </trkpt>
      <trkpt lat="49.2761" lon="0.1006">
        <ele>91.043</ele>
        <time>2015-12-04T20:06:27Z</time>
      </trkpt>
      <trkpt lat="49.27582" lon="0.09993">
        <ele>102.012</ele>
        <time>2015-12-04T20:06:47Z</time>
      </trkpt>
      <trkpt lat="49.27549" lon="0.09923">
        <ele>111.021</ele>
        <time>2015-12-04T20:07:07Z</time>
      </trkpt>
      <trkpt lat="49.27495" lon="0.09845">
        <ele>120.061</ele>
        <time>2015-12-04T20:07:27Z</time>
      </trkpt>
      <trkpt lat="49.27521" lon="0.09823">
        <ele>120.039</ele>
        <time>2015-12-04T20:07:47Z</time>
      </trkpt>
      <trkpt lat="49.2757" lon="0.0981">
        <ele>120.046</ele>
        <time>2015-12-04T20:08:07Z</time>
      </trkpt>
      <trkpt lat="49.27601" lon="0.0978">
        <ele>120.084</ele>
        <time>2015-12-04T20:08:27Z</time>
      </trkpt>
      <trkpt lat="49.2764" lon="0.09697">
        <ele>122.031</ele>
        <time>2015-12-04T20:08:47Z</time>
      </trkpt>
      <trkpt lat="49.27675" lon="0.09725">
        <ele>120.061</ele>
        <time>2015-12-04T20:09:07Z</time>
      </trkpt>
      <trkpt lat="49.27748" lon="0.09556">
        <ele>121.007</ele>
        <time>2015-12-04T20:09:27Z</time>
      </trkpt>
      <trkpt lat="49.27799" lon="0.09475">
        <ele>120.008</ele>
        <time>2015-12-04T20:09:47Z</time>
      </trkpt>
      <trkpt lat="49.27801" lon="0.09427">
        <ele>120.069</ele>
        <time>2015-12-04T20:10:07Z</time>
      </trkpt>
      <trkpt lat="49.27791" lon="0.09373">
        <ele>120.095</ele>
        <time>2015-12-04T20:10:27Z</time>
      </trkpt>
      <trkpt lat="49.27797" lon="0.09311">
        <ele>120.054</ele>
        <time>2015-12-04T20:10:47Z</time>
      </trkpt>
      <trkpt lat="49.27796" lon="0.09255">
        <ele>120.023</ele>
        <time>2015-12-04T20:11:07Z</time>
      </trkpt>
      <trkpt lat="49.27842" lon="0.09117">
        <ele>117.093</ele>
        <time>2015-12-04T20:11:27Z</time>
      </trkpt>
      <trkpt lat="49.27849" lon="0.09034">
        <ele>118.061</ele>
        <time>2015-12-04T20:11:47Z</time>
      </trkpt>
      <trkpt lat="49.27856" lon="0.08997">
        <ele>120.048</ele>
        <time>2015-12-04T20:12:07Z</time>
      </trkpt>
      <trkpt lat="49.27826" lon="0.09016">
        <ele>119.056</ele>
        <time>2015-12-04T20:12:27Z</time>
      </trkpt>
      <trkpt lat="49.27716" lon="0.0914">
        <ele>115.096</ele>
        <time>2015-12-04T20:12:47Z</time>
      </trkpt>
      <trkpt lat="49.27644" lon="0.09154">
        <ele>114.031</ele>
        <time>2015-12-04T20:13:07Z</time>
      </trkpt>
      <trkpt lat="49.27579" lon="0.0916">
        <ele>115.024</ele>
        <time>2015-12-04T20:13:27Z</time>
      </trkpt>
      <trkpt lat="49.27493" lon="0.09139">
        <ele>114.008</ele>
        <time>2015-12-04T20:13:47Z</time>
      </trkpt>
      <trkpt lat="49.27404" lon="0.09149">
        <ele>114.025</ele>
        <time>2015-12-04T20:14:07Z</time>
      </trkpt>
      <trkpt lat="49.27336" lon="0.09183">
        <ele>115.011</ele>
        <time>2015-12-04T20:14:27Z</time>
      </trkpt>
      <trkpt lat="49.27323" lon="0.09166">
        <ele>113.04</ele>
        <time>2015-12-04T20:14:47Z</time>
      </trkpt>
      <trkpt lat="49.27293" lon="0.09101">
        <ele>111.039</ele>
        <time>2015-12-04T20:15:07Z</time>
      </trkpt>
      <trkpt lat="49.27281" lon="0.09">
        <ele>113.069</ele>
        <time>2015-12-04T20:15:27Z</time>
      </trkpt>
      <trkpt lat="49.27275" lon="0.08963">
        <ele>114.087</ele>
        <time>2015-12-04T20:15:47Z</time>
      </trkpt>
      <trkpt lat="49.27264" lon="0.08814">
        <ele>119.094</ele>
        <time>2015-12-04T20:16:07Z</time>
      </trkpt>
      <trkpt lat="49.27258" lon="0.08789">
        <ele>119.012</ele>
        <time>2015-12-04T20:16:27Z</time>
      </trkpt>
      <trkpt lat="49.27343" lon="0.08752">
        <ele>117.017</ele>
        <time>2015-12-04T20:16:47Z</time>
      </trkpt>
      <trkpt lat="49.27396" lon="0.08735">
        <ele>117.087</ele>
        <time>2015-12-04T20:17:07Z</time>
      </trkpt>
      <trkpt lat="49.27418" lon="0.08718">
        <ele>117.015</ele>
        <time>2015-12-04T20:17:27Z</time>
      </trkpt>
      <trkpt lat="49.2743" lon="0.08661">
        <ele>117.008</ele>
        <time>2015-12-04T20:17:47Z</time>
      </trkpt>
      <trkpt lat="49.27462" lon="0.08592">
        <ele>116.087</ele>
        <time>2015-12-04T20:18:07Z</time>
      </trkpt>
      <trkpt lat="49.27479" lon="0.0854">
        <ele>115.083</ele>
        <time>2015-12-04T20:18:27Z</time>
      </trkpt>
      <trkpt lat="49.27489" lon="0.08468">
        <ele>113.092</ele>
        <time>2015-12-04T20:18:47Z</time>
      </trkpt>
      <trkpt lat="49.27492" lon="0.08371">
        <ele>109.071</ele>
        <time>2015-12-04T20:19:07Z</time>
      </trkpt>
      <trkpt lat="49.27498" lon="0.08288">
        <ele>103.021</ele>
        <time>2015-12-04T20:19:27Z</time>
      </trkpt>
      <trkpt lat="49.27522" lon="0.08229">
        <ele>96.019</ele>
        <time>2015-12-04T20:19:47Z</time>
      </trkpt>
      <trkpt lat="49.2755" lon="0.08163">
        <ele>90.076</ele>
        <time>2015-12-04T20:20:07Z</time>
      </trkpt>
      <trkpt lat="49.27587" lon="0.0811">
        <ele>89.074</ele>
        <time>2015-12-04T20:20:27Z</time>
      </trkpt>
      <trkpt lat="49.27615" lon="0.08084">
        <ele>89.094</ele>
        <time>2015-12-04T20:20:47Z</time>
      </trkpt>
      <trkpt lat="49.27698" lon="0.08066">
        <ele>91.057</ele>
        <time>2015-12-04T20:21:07Z</time>
      </trkpt>
      <trkpt lat="49.27721" lon="0.0807">
        <ele>90.022</ele>
        <time>2015-12-04T20:21:27Z</time>
      </trkpt>
      <trkpt lat="49.27758" lon="0.0809">
        <ele>85.008</ele>
        <time>2015-12-04T20:21:47Z</time>
      </trkpt>
      <trkpt lat="49.27779" lon="0.08089">
        <ele>83.055</ele>
        <time>2015-12-04T20:22:07Z</time>
      </trkpt>
      <trkpt lat="49.27795" lon="0.0798">
        <ele>90.061</ele>
        <time>2015-12-04T20:22:27Z</time>
      </trkpt>
      <trkpt lat="49.27807" lon="0.07861">
        <ele>93.09</ele>
        <time>2015-12-04T20:22:47Z</time>
      </trkpt>
      <trkpt lat="49.27797" lon="0.07704">
        <ele>93.049</ele>
        <time>2015-12-04T20:23:07Z</time>
      </trkpt>
      <trkpt lat="49.27723" lon="0.07711">
        <ele>100.019</ele>
        <time>2015-12-04T20:23:27Z</time>
      </trkpt>
      <trkpt lat="49.27648" lon="0.07677">
        <ele>106.027</ele>
        <time>2015-12-04T20:23:47Z</time>
      </trkpt>
      <trkpt lat="49.27591" lon="0.07666">
        <ele>108.024</ele>
        <time>2015-12-04T20:24:07Z</time>
      </trkpt>
      <trkpt lat="49.27639" lon="0.07594">
        <ele>103.072</ele>
        <time>2015-12-04T20:24:27Z</time>
      </trkpt>
      <trkpt lat="49.27689" lon="0.0756">
        <ele>95.032</ele>
        <time>2015-12-04T20:24:47Z</time>
      </trkpt>
      <trkpt lat="49.27738" lon="0.07518">
        <ele>91.092</ele>
        <time>2015-12-04T20:25:07Z</time>
      </trkpt>
      <trkpt lat="49.27805" lon="0.07468">
        <ele>81.011</ele>
        <time>2015-12-04T20:25:27Z</time>
      </trkpt>
      <trkpt lat="49.27861" lon="0.07405">
        <ele>71.008</ele>
        <time>2015-12-04T20:25:47Z</time>
      </trkpt>
      <trkpt lat="49.27887" lon="0.07362">
        <ele>67.2</ele>
      </trkpt>
    </trkseg>
  </trk>
</gpx>